sensor_id;sensor_type;location;lat;lon;timestamp;pressure;altitude;pressure_sealevel;temperature;humidity
59435;BME280;45241;49.768;8.636;2023-04-05T00:00:50;100893.28;;;7.00;53.14
59435;BME280;45241;49.768;8.636;2023-04-05T00:03:18;100889.50;;;6.93;53.77
59435;BME280;45241;49.768;8.636;2023-04-05T00:05:44;100888.97;;;6.89;54.45
59435;BME280;45241;49.768;8.636;2023-04-05T00:08:09;100886.31;;;6.89;54.63
59435;BME280;45241;49.768;8.636;2023-04-05T00:10:37;100888.28;;;6.87;54.86
59435;BME280;45241;49.768;8.636;2023-04-05T00:13:03;100886.47;;;6.88;54.98
59435;BME280;45241;49.768;8.636;2023-04-05T00:15:28;100877.31;;;6.72;55.29
59435;BME280;45241;49.768;8.636;2023-04-05T00:17:55;100884.28;;;6.56;55.13
59435;BME280;45241;49.768;8.636;2023-04-05T00:20:20;100877.25;;;6.55;54.30
59435;BME280;45241;49.768;8.636;2023-04-05T00:22:45;100876.50;;;6.45;54.25
59435;BME280;45241;49.768;8.636;2023-04-05T00:25:11;100878.72;;;6.49;54.53
59435;BME280;45241;49.768;8.636;2023-04-05T00:27:36;100872.56;;;6.49;54.10
59435;BME280;45241;49.768;8.636;2023-04-05T00:30:01;100874.53;;;6.47;53.84
59435;BME280;45241;49.768;8.636;2023-04-05T00:32:27;100873.09;;;6.52;54.23
59435;BME280;45241;49.768;8.636;2023-04-05T00:34:52;100867.28;;;6.39;54.74
59435;BME280;45241;49.768;8.636;2023-04-05T00:37:17;100865.44;;;6.39;55.10
59435;BME280;45241;49.768;8.636;2023-04-05T00:39:42;100866.75;;;6.35;54.41
59435;BME280;45241;49.768;8.636;2023-04-05T00:42:07;100867.72;;;6.34;54.83
59435;BME280;45241;49.768;8.636;2023-04-05T00:44:33;100859.13;;;6.40;54.41
59435;BME280;45241;49.768;8.636;2023-04-05T00:46:59;100856.47;;;6.40;54.26
59435;BME280;45241;49.768;8.636;2023-04-05T00:49:25;100853.75;;;6.50;54.05
59435;BME280;45241;49.768;8.636;2023-04-05T00:51:50;100853.66;;;6.42;53.65
59435;BME280;45241;49.768;8.636;2023-04-05T00:54:16;100847.97;;;6.55;52.92
59435;BME280;45241;49.768;8.636;2023-04-05T00:56:41;100847.97;;;6.55;53.38
59435;BME280;45241;49.768;8.636;2023-04-05T00:59:06;100853.81;;;6.40;54.09
59435;BME280;45241;49.768;8.636;2023-04-05T01:01:31;100846.59;;;6.33;55.08
59435;BME280;45241;49.768;8.636;2023-04-05T01:04:02;100855.97;;;6.27;56.42
59435;BME280;45241;49.768;8.636;2023-04-05T01:06:42;100853.47;;;6.26;56.27
59435;BME280;45241;49.768;8.636;2023-04-05T01:09:13;100848.41;;;6.32;55.83
59435;BME280;45241;49.768;8.636;2023-04-05T01:11:41;100842.22;;;6.04;56.67
59435;BME280;45241;49.768;8.636;2023-04-05T01:14:09;100851.94;;;5.96;56.90
59435;BME280;45241;49.768;8.636;2023-04-05T01:16:34;100846.41;;;5.79;57.34
59435;BME280;45241;49.768;8.636;2023-04-05T01:18:59;100840.94;;;5.81;56.53
59435;BME280;45241;49.768;8.636;2023-04-05T01:21:30;100839.28;;;5.80;56.54
59435;BME280;45241;49.768;8.636;2023-04-05T01:34:29;100838.66;;;5.49;58.31
59435;BME280;45241;49.768;8.636;2023-04-05T01:36:57;100839.16;;;5.62;57.95
59435;BME280;45241;49.768;8.636;2023-04-05T01:39:25;100829.72;;;5.40;57.83
59435;BME280;45241;49.768;8.636;2023-04-05T01:41:51;100824.13;;;5.43;56.91
59435;BME280;45241;49.768;8.636;2023-04-05T01:44:16;100830.03;;;5.28;58.12
59435;BME280;45241;49.768;8.636;2023-04-05T01:46:41;100821.75;;;5.40;56.31
59435;BME280;45241;49.768;8.636;2023-04-05T01:49:07;100813.88;;;5.39;56.82
59435;BME280;45241;49.768;8.636;2023-04-05T01:51:32;100817.28;;;5.31;57.14
59435;BME280;45241;49.768;8.636;2023-04-05T01:53:57;100822.69;;;5.39;55.44
59435;BME280;45241;49.768;8.636;2023-04-05T01:56:22;100818.03;;;5.61;55.21
59435;BME280;45241;49.768;8.636;2023-04-05T01:58:47;100815.81;;;5.56;56.24
59435;BME280;45241;49.768;8.636;2023-04-05T02:01:13;100813.72;;;5.50;57.23
59435;BME280;45241;49.768;8.636;2023-04-05T02:03:38;100817.38;;;5.39;56.61
59435;BME280;45241;49.768;8.636;2023-04-05T02:06:03;100812.34;;;5.46;57.33
59435;BME280;45241;49.768;8.636;2023-04-05T02:08:29;100816.03;;;5.25;57.01
59435;BME280;45241;49.768;8.636;2023-04-05T02:10:54;100819.13;;;5.21;57.69
59435;BME280;45241;49.768;8.636;2023-04-05T02:13:20;100816.06;;;5.16;57.52
59435;BME280;45241;49.768;8.636;2023-04-05T02:15:49;100816.19;;;5.14;56.28
59435;BME280;45241;49.768;8.636;2023-04-05T02:18:15;100813.78;;;5.21;56.52
59435;BME280;45241;49.768;8.636;2023-04-05T02:20:45;100814.38;;;5.15;56.89
59435;BME280;45241;49.768;8.636;2023-04-05T02:23:11;100818.28;;;5.30;56.27
59435;BME280;45241;49.768;8.636;2023-04-05T02:25:36;100814.63;;;5.21;56.44
59435;BME280;45241;49.768;8.636;2023-04-05T02:28:01;100817.03;;;5.05;57.29
59435;BME280;45241;49.768;8.636;2023-04-05T02:30:27;100811.88;;;5.04;57.09
59435;BME280;45241;49.768;8.636;2023-04-05T02:32:53;100812.56;;;5.15;56.04
59435;BME280;45241;49.768;8.636;2023-04-05T02:35:18;100820.66;;;5.23;55.41
59435;BME280;45241;49.768;8.636;2023-04-05T02:37:45;100821.47;;;5.24;55.42
59435;BME280;45241;49.768;8.636;2023-04-05T02:40:11;100812.81;;;5.32;55.15
59435;BME280;45241;49.768;8.636;2023-04-05T02:42:37;100811.81;;;5.33;55.38
59435;BME280;45241;49.768;8.636;2023-04-05T02:45:02;100818.81;;;5.34;55.53
59435;BME280;45241;49.768;8.636;2023-04-05T02:47:27;100818.41;;;5.29;54.79
59435;BME280;45241;49.768;8.636;2023-04-05T02:49:53;100812.28;;;5.18;55.37
59435;BME280;45241;49.768;8.636;2023-04-05T02:52:18;100818.00;;;5.23;56.70
59435;BME280;45241;49.768;8.636;2023-04-05T02:54:43;100820.38;;;5.17;56.89
59435;BME280;45241;49.768;8.636;2023-04-05T02:57:10;100822.75;;;5.10;55.60
59435;BME280;45241;49.768;8.636;2023-04-05T02:59:36;100821.22;;;5.17;55.60
59435;BME280;45241;49.768;8.636;2023-04-05T03:02:02;100810.19;;;4.93;56.82
59435;BME280;45241;49.768;8.636;2023-04-05T03:04:27;100812.03;;;4.92;56.76
59435;BME280;45241;49.768;8.636;2023-04-05T03:06:52;100801.78;;;4.98;57.79
59435;BME280;45241;49.768;8.636;2023-04-05T03:09:19;100809.38;;;4.92;57.90
59435;BME280;45241;49.768;8.636;2023-04-05T03:11:44;100811.31;;;4.81;58.35
59435;BME280;45241;49.768;8.636;2023-04-05T03:14:10;100812.31;;;4.80;58.43
59435;BME280;45241;49.768;8.636;2023-04-05T03:16:36;100809.66;;;4.80;58.55
59435;BME280;45241;49.768;8.636;2023-04-05T03:19:03;100801.81;;;4.78;58.46
59435;BME280;45241;49.768;8.636;2023-04-05T03:21:30;100807.00;;;4.89;58.21
59435;BME280;45241;49.768;8.636;2023-04-05T03:23:56;100805.47;;;4.77;58.56
59435;BME280;45241;49.768;8.636;2023-04-05T03:26:21;100799.84;;;4.80;58.72
59435;BME280;45241;49.768;8.636;2023-04-05T03:28:47;100800.13;;;4.68;59.55
59435;BME280;45241;49.768;8.636;2023-04-05T03:31:12;100800.28;;;4.66;58.78
59435;BME280;45241;49.768;8.636;2023-04-05T03:33:37;100795.94;;;4.65;59.07
59435;BME280;45241;49.768;8.636;2023-04-05T03:36:03;100794.53;;;4.71;58.73
59435;BME280;45241;49.768;8.636;2023-04-05T03:38:28;100796.09;;;4.63;58.02
59435;BME280;45241;49.768;8.636;2023-04-05T03:40:56;100796.78;;;4.56;57.85
59435;BME280;45241;49.768;8.636;2023-04-05T03:43:21;100791.19;;;4.40;57.84
59435;BME280;45241;49.768;8.636;2023-04-05T03:45:46;100791.44;;;4.46;57.89
59435;BME280;45241;49.768;8.636;2023-04-05T03:48:11;100792.44;;;4.55;57.77
59435;BME280;45241;49.768;8.636;2023-04-05T03:50:37;100794.00;;;4.77;55.97
59435;BME280;45241;49.768;8.636;2023-04-05T03:53:02;100788.66;;;4.96;55.44
59435;BME280;45241;49.768;8.636;2023-04-05T03:55:27;100787.38;;;5.00;55.30
59435;BME280;45241;49.768;8.636;2023-04-05T03:57:52;100797.22;;;4.90;55.49
59435;BME280;45241;49.768;8.636;2023-04-05T04:00:18;100799.97;;;4.98;56.11
59435;BME280;45241;49.768;8.636;2023-04-05T04:02:45;100797.75;;;4.84;55.80
59435;BME280;45241;49.768;8.636;2023-04-05T04:05:10;100787.41;;;4.81;56.59
59435;BME280;45241;49.768;8.636;2023-04-05T04:07:36;100789.09;;;4.82;56.33
59435;BME280;45241;49.768;8.636;2023-04-05T04:10:02;100771.47;;;4.81;56.65
59435;BME280;45241;49.768;8.636;2023-04-05T04:12:27;100776.22;;;4.87;56.27
59435;BME280;45241;49.768;8.636;2023-04-05T04:14:52;100772.59;;;4.88;54.42
59435;BME280;45241;49.768;8.636;2023-04-05T04:17:27;100774.97;;;4.91;54.39
59435;BME280;45241;49.768;8.636;2023-04-05T04:19:53;100762.94;;;4.87;54.89
59435;BME280;45241;49.768;8.636;2023-04-05T04:22:18;100766.47;;;4.78;56.46
59435;BME280;45241;49.768;8.636;2023-04-05T04:24:44;100772.44;;;4.60;56.29
59435;BME280;45241;49.768;8.636;2023-04-05T04:27:10;100775.00;;;4.62;56.01
59435;BME280;45241;49.768;8.636;2023-04-05T04:29:35;100772.03;;;4.55;55.76
59435;BME280;45241;49.768;8.636;2023-04-05T04:32:03;100776.22;;;4.58;55.49
59435;BME280;45241;49.768;8.636;2023-04-05T04:34:30;100772.28;;;4.33;57.75
59435;BME280;45241;49.768;8.636;2023-04-05T04:36:58;100772.19;;;4.54;56.04
59435;BME280;45241;49.768;8.636;2023-04-05T04:39:24;100773.56;;;4.39;55.67
59435;BME280;45241;49.768;8.636;2023-04-05T04:41:51;100767.28;;;4.40;56.46
59435;BME280;45241;49.768;8.636;2023-04-05T04:44:19;100763.09;;;4.47;55.97
59435;BME280;45241;49.768;8.636;2023-04-05T04:46:52;100763.78;;;4.29;56.77
59435;BME280;45241;49.768;8.636;2023-04-05T04:49:18;100768.81;;;4.23;57.35
59435;BME280;45241;49.768;8.636;2023-04-05T04:51:45;100774.69;;;4.26;56.78
59435;BME280;45241;49.768;8.636;2023-04-05T04:54:10;100773.97;;;4.34;57.81
59435;BME280;45241;49.768;8.636;2023-04-05T04:56:36;100780.56;;;4.49;57.91
59435;BME280;45241;49.768;8.636;2023-04-05T04:59:02;100776.78;;;4.42;57.86
59435;BME280;45241;49.768;8.636;2023-04-05T05:01:27;100781.09;;;4.33;58.05
59435;BME280;45241;49.768;8.636;2023-04-05T05:03:52;100786.81;;;4.19;58.20
59435;BME280;45241;49.768;8.636;2023-04-05T05:06:17;100788.91;;;4.16;58.77
59435;BME280;45241;49.768;8.636;2023-04-05T05:08:48;100790.28;;;4.10;57.87
59435;BME280;45241;49.768;8.636;2023-04-05T05:11:13;100784.56;;;4.15;58.08
59435;BME280;45241;49.768;8.636;2023-04-05T05:13:39;100780.53;;;4.11;58.01
59435;BME280;45241;49.768;8.636;2023-04-05T05:16:04;100781.63;;;4.18;57.58
59435;BME280;45241;49.768;8.636;2023-04-05T05:18:30;100787.38;;;4.23;57.97
59435;BME280;45241;49.768;8.636;2023-04-05T05:20:56;100786.28;;;4.25;58.63
59435;BME280;45241;49.768;8.636;2023-04-05T05:23:21;100787.63;;;4.20;58.86
59435;BME280;45241;49.768;8.636;2023-04-05T05:25:46;100786.53;;;4.32;58.62
59435;BME280;45241;49.768;8.636;2023-04-05T05:28:11;100790.03;;;4.32;58.59
59435;BME280;45241;49.768;8.636;2023-04-05T05:30:36;100793.97;;;4.38;57.15
59435;BME280;45241;49.768;8.636;2023-04-05T05:33:02;100793.69;;;4.41;56.92
59435;BME280;45241;49.768;8.636;2023-04-05T05:35:27;100795.50;;;4.41;57.27
59435;BME280;45241;49.768;8.636;2023-04-05T05:37:52;100787.84;;;4.38;58.09
59435;BME280;45241;49.768;8.636;2023-04-05T05:40:18;100782.25;;;4.50;57.70
59435;BME280;45241;49.768;8.636;2023-04-05T05:42:43;100795.09;;;4.55;57.78
59435;BME280;45241;49.768;8.636;2023-04-05T05:45:08;100791.63;;;4.64;58.40
59435;BME280;45241;49.768;8.636;2023-04-05T05:47:33;100789.81;;;4.64;58.29
59435;BME280;45241;49.768;8.636;2023-04-05T05:49:59;100788.09;;;4.73;58.88
59435;BME280;45241;49.768;8.636;2023-04-05T05:52:24;100794.97;;;4.76;59.11
59435;BME280;45241;49.768;8.636;2023-04-05T05:54:50;100792.28;;;4.85;58.52
59435;BME280;45241;49.768;8.636;2023-04-05T05:57:15;100790.06;;;4.81;58.97
59435;BME280;45241;49.768;8.636;2023-04-05T05:59:40;100790.06;;;4.81;59.85
59435;BME280;45241;49.768;8.636;2023-04-05T06:02:06;100794.84;;;4.77;59.48
59435;BME280;45241;49.768;8.636;2023-04-05T06:04:31;100791.19;;;4.88;58.81
59435;BME280;45241;49.768;8.636;2023-04-05T06:06:58;100786.72;;;4.88;59.09
59435;BME280;45241;49.768;8.636;2023-04-05T06:09:23;100799.13;;;4.98;59.56
59435;BME280;45241;49.768;8.636;2023-04-05T06:11:51;100800.25;;;5.05;58.84
59435;BME280;45241;49.768;8.636;2023-04-05T06:14:17;100800.13;;;5.06;59.31
59435;BME280;45241;49.768;8.636;2023-04-05T06:16:42;100794.81;;;5.06;59.30
59435;BME280;45241;49.768;8.636;2023-04-05T06:19:07;100794.66;;;5.17;58.99
59435;BME280;45241;49.768;8.636;2023-04-05T06:21:33;100795.88;;;5.33;58.62
59435;BME280;45241;49.768;8.636;2023-04-05T06:23:58;100797.09;;;5.38;57.98
59435;BME280;45241;49.768;8.636;2023-04-05T06:26:24;100793.59;;;5.38;58.10
59435;BME280;45241;49.768;8.636;2023-04-05T06:28:52;100792.06;;;5.45;56.99
59435;BME280;45241;49.768;8.636;2023-04-05T06:31:19;100795.38;;;5.57;56.94
59435;BME280;45241;49.768;8.636;2023-04-05T06:33:44;100797.72;;;5.69;56.63
59435;BME280;45241;49.768;8.636;2023-04-05T06:36:10;100792.94;;;5.73;56.27
59435;BME280;45241;49.768;8.636;2023-04-05T06:38:35;100791.50;;;5.78;56.48
59435;BME280;45241;49.768;8.636;2023-04-05T06:41:00;100798.03;;;5.94;56.59
59435;BME280;45241;49.768;8.636;2023-04-05T06:43:26;100797.44;;;6.00;56.17
59435;BME280;45241;49.768;8.636;2023-04-05T06:45:51;100791.13;;;6.01;55.84
59435;BME280;45241;49.768;8.636;2023-04-05T06:48:19;100794.47;;;6.03;54.43
59435;BME280;45241;49.768;8.636;2023-04-05T06:50:45;100789.63;;;6.16;54.67
59435;BME280;45241;49.768;8.636;2023-04-05T06:53:10;100785.69;;;6.20;54.36
59435;BME280;45241;49.768;8.636;2023-04-05T06:55:37;100791.97;;;6.47;54.88
59435;BME280;45241;49.768;8.636;2023-04-05T06:58:02;100790.34;;;6.54;54.19
59435;BME280;45241;49.768;8.636;2023-04-05T07:00:27;100786.78;;;6.63;52.37
59435;BME280;45241;49.768;8.636;2023-04-05T07:02:52;100787.78;;;6.62;51.30
59435;BME280;45241;49.768;8.636;2023-04-05T07:05:18;100795.56;;;6.73;51.09
59435;BME280;45241;49.768;8.636;2023-04-05T07:07:43;100792.56;;;6.76;52.01
59435;BME280;45241;49.768;8.636;2023-04-05T07:10:09;100791.34;;;6.88;51.02
59435;BME280;45241;49.768;8.636;2023-04-05T07:12:35;100787.00;;;6.87;51.28
59435;BME280;45241;49.768;8.636;2023-04-05T07:15:00;100780.38;;;6.91;51.31
59435;BME280;45241;49.768;8.636;2023-04-05T07:17:25;100783.06;;;7.09;51.22
59435;BME280;45241;49.768;8.636;2023-04-05T07:19:51;100784.44;;;7.21;50.65
59435;BME280;45241;49.768;8.636;2023-04-05T07:22:16;100787.94;;;7.22;50.05
59435;BME280;45241;49.768;8.636;2023-04-05T07:24:43;100782.00;;;7.28;50.54
59435;BME280;45241;49.768;8.636;2023-04-05T07:27:08;100777.78;;;7.43;50.67
59435;BME280;45241;49.768;8.636;2023-04-05T07:29:33;100777.66;;;7.53;50.89
59435;BME280;45241;49.768;8.636;2023-04-05T07:32:02;100780.44;;;7.43;49.79
59435;BME280;45241;49.768;8.636;2023-04-05T07:34:27;100777.66;;;7.53;50.02
59435;BME280;45241;49.768;8.636;2023-04-05T07:36:52;100785.50;;;7.54;50.29
59435;BME280;45241;49.768;8.636;2023-04-05T07:39:18;100786.19;;;7.56;49.34
59435;BME280;45241;49.768;8.636;2023-04-05T07:41:44;100786.50;;;7.53;49.40
59435;BME280;45241;49.768;8.636;2023-04-05T07:44:09;100785.16;;;7.49;48.21
59435;BME280;45241;49.768;8.636;2023-04-05T07:46:34;100780.91;;;7.73;49.00
59435;BME280;45241;49.768;8.636;2023-04-05T07:48:59;100787.75;;;7.67;47.92
59435;BME280;45241;49.768;8.636;2023-04-05T07:51:25;100782.97;;;7.87;48.16
59435;BME280;45241;49.768;8.636;2023-04-05T07:53:51;100783.41;;;8.00;48.03
59435;BME280;45241;49.768;8.636;2023-04-05T07:56:16;100782.41;;;8.01;47.48
59435;BME280;45241;49.768;8.636;2023-04-05T07:58:41;100778.47;;;8.30;48.53
59435;BME280;45241;49.768;8.636;2023-04-05T08:01:07;100784.88;;;8.53;47.71
59435;BME280;45241;49.768;8.636;2023-04-05T08:03:33;100787.72;;;8.60;47.28
59435;BME280;45241;49.768;8.636;2023-04-05T08:06:08;100785.38;;;8.57;47.01
59435;BME280;45241;49.768;8.636;2023-04-05T08:08:33;100778.56;;;8.78;46.34
59435;BME280;45241;49.768;8.636;2023-04-05T08:11:01;100785.38;;;8.89;46.09
59435;BME280;45241;49.768;8.636;2023-04-05T08:13:26;100788.59;;;8.93;45.95
59435;BME280;45241;49.768;8.636;2023-04-05T08:15:51;100785.22;;;8.99;45.77
59435;BME280;45241;49.768;8.636;2023-04-05T08:18:19;100785.38;;;9.22;45.85
59435;BME280;45241;49.768;8.636;2023-04-05T08:20:45;100786.06;;;8.99;44.68
59435;BME280;45241;49.768;8.636;2023-04-05T08:23:14;100783.72;;;9.13;46.45
59435;BME280;45241;49.768;8.636;2023-04-05T08:25:39;100785.22;;;9.15;45.19
59435;BME280;45241;49.768;8.636;2023-04-05T08:28:05;100787.53;;;9.26;44.79
59435;BME280;45241;49.768;8.636;2023-04-05T08:30:30;100772.78;;;9.55;45.67
59435;BME280;45241;49.768;8.636;2023-04-05T08:32:55;100785.22;;;9.31;44.18
59435;BME280;45241;49.768;8.636;2023-04-05T08:35:20;100776.81;;;9.43;44.41
59435;BME280;45241;49.768;8.636;2023-04-05T08:37:46;100779.84;;;9.15;43.54
59435;BME280;45241;49.768;8.636;2023-04-05T08:40:12;100767.47;;;9.47;44.21
59435;BME280;45241;49.768;8.636;2023-04-05T08:42:45;100764.94;;;9.61;43.80
59435;BME280;45241;49.768;8.636;2023-04-05T08:45:11;100772.88;;;9.86;43.84
59435;BME280;45241;49.768;8.636;2023-04-05T08:47:38;100774.75;;;9.77;43.65
59435;BME280;45241;49.768;8.636;2023-04-05T08:50:03;100770.41;;;9.68;42.83
59435;BME280;45241;49.768;8.636;2023-04-05T08:52:29;100772.09;;;10.08;44.38
59435;BME280;45241;49.768;8.636;2023-04-05T08:54:56;100775.53;;;10.25;44.48
59435;BME280;45241;49.768;8.636;2023-04-05T08:57:23;100770.22;;;10.17;43.21
59435;BME280;45241;49.768;8.636;2023-04-05T08:59:49;100765.00;;;10.23;43.63
59435;BME280;45241;49.768;8.636;2023-04-05T09:02:16;100770.28;;;10.63;45.09
59435;BME280;45241;49.768;8.636;2023-04-05T09:04:43;100773.84;;;10.55;42.77
59435;BME280;45241;49.768;8.636;2023-04-05T09:07:08;100779.00;;;10.56;42.89
59435;BME280;45241;49.768;8.636;2023-04-05T09:09:35;100773.72;;;10.71;41.99
59435;BME280;45241;49.768;8.636;2023-04-05T09:12:02;100764.88;;;10.40;40.78
59435;BME280;45241;49.768;8.636;2023-04-05T09:14:28;100770.09;;;10.33;41.87
59435;BME280;45241;49.768;8.636;2023-04-05T09:16:55;100776.78;;;11.06;51.54
59435;BME280;45241;49.768;8.636;2023-04-05T09:19:20;100769.97;;;11.56;51.81
59435;BME280;45241;49.768;8.636;2023-04-05T09:22:02;100767.31;;;10.95;43.64
59435;BME280;45241;49.768;8.636;2023-04-05T09:24:45;100772.84;;;11.17;45.61
59435;BME280;45241;49.768;8.636;2023-04-05T09:27:17;100761.28;;;11.31;44.31
59435;BME280;45241;49.768;8.636;2023-04-05T09:29:44;100760.88;;;11.57;44.36
59435;BME280;45241;49.768;8.636;2023-04-05T09:32:10;100760.88;;;11.57;45.33
59435;BME280;45241;49.768;8.636;2023-04-05T09:34:36;100766.03;;;11.88;45.98
59435;BME280;45241;49.768;8.636;2023-04-05T09:37:02;100762.22;;;12.48;47.19
59435;BME280;45241;49.768;8.636;2023-04-05T09:39:31;100754.00;;;12.35;47.31
59435;BME280;45241;49.768;8.636;2023-04-05T09:42:15;100756.16;;;12.24;42.23
59435;BME280;45241;49.768;8.636;2023-04-05T09:44:56;100742.34;;;11.77;41.09
59435;BME280;45241;49.768;8.636;2023-04-05T09:47:25;100745.03;;;12.27;43.62
59435;BME280;45241;49.768;8.636;2023-04-05T09:49:55;100753.63;;;12.38;44.00
59435;BME280;45241;49.768;8.636;2023-04-05T09:52:21;100756.06;;;12.54;44.88
59435;BME280;45241;49.768;8.636;2023-04-05T09:54:47;100749.16;;;12.87;43.83
59435;BME280;45241;49.768;8.636;2023-04-05T09:57:14;100764.06;;;12.69;41.74
59435;BME280;45241;49.768;8.636;2023-04-05T09:59:39;100756.59;;;12.64;39.35
59435;BME280;45241;49.768;8.636;2023-04-05T10:02:05;100760.81;;;12.73;45.99
59435;BME280;45241;49.768;8.636;2023-04-05T10:04:44;100760.03;;;12.79;40.10
59435;BME280;45241;49.768;8.636;2023-04-05T10:07:10;100750.38;;;13.06;45.47
59435;BME280;45241;49.768;8.636;2023-04-05T10:09:37;100756.91;;;12.76;40.00
59435;BME280;45241;49.768;8.636;2023-04-05T10:12:03;100755.50;;;12.80;40.71
59435;BME280;45241;49.768;8.636;2023-04-05T10:14:29;100750.19;;;13.36;43.04
59435;BME280;45241;49.768;8.636;2023-04-05T10:16:59;100747.97;;;13.18;38.31
59435;BME280;45241;49.768;8.636;2023-04-05T10:19:36;100744.69;;;12.73;38.95
59435;BME280;45241;49.768;8.636;2023-04-05T10:22:05;100747.63;;;13.28;41.77
59435;BME280;45241;49.768;8.636;2023-04-05T10:24:38;100744.94;;;13.00;39.15
59435;BME280;45241;49.768;8.636;2023-04-05T10:30:07;100732.44;;;13.20;42.82
59435;BME280;45241;49.768;8.636;2023-04-05T10:35:07;100726.72;;;12.80;38.71
59435;BME280;45241;49.768;8.636;2023-04-05T10:40:18;100717.09;;;13.14;39.74
59435;BME280;45241;49.768;8.636;2023-04-05T10:42:45;100711.44;;;13.71;42.34
59435;BME280;45241;49.768;8.636;2023-04-05T10:45:13;100718.34;;;14.42;40.05
59435;BME280;45241;49.768;8.636;2023-04-05T10:47:43;100708.59;;;14.47;39.88
59435;BME280;45241;49.768;8.636;2023-04-05T10:50:11;100702.88;;;14.09;37.31
59435;BME280;45241;49.768;8.636;2023-04-05T10:52:38;100702.78;;;14.50;41.65
59435;BME280;45241;49.768;8.636;2023-04-05T10:55:04;100701.56;;;14.99;40.45
59435;BME280;45241;49.768;8.636;2023-04-05T10:57:30;100696.16;;;14.86;36.71
59435;BME280;45241;49.768;8.636;2023-04-05T10:59:55;100702.59;;;14.58;38.16
59435;BME280;45241;49.768;8.636;2023-04-05T11:02:23;100698.44;;;14.76;38.67
59435;BME280;45241;49.768;8.636;2023-04-05T11:04:52;100700.31;;;14.68;38.36
59435;BME280;45241;49.768;8.636;2023-04-05T11:07:20;100695.53;;;14.84;39.20
59435;BME280;45241;49.768;8.636;2023-04-05T11:10:01;100688.28;;;14.71;37.81
59435;BME280;45241;49.768;8.636;2023-04-05T11:20:40;100679.34;;;15.04;34.50
59435;BME280;45241;49.768;8.636;2023-04-05T11:23:06;100685.59;;;15.04;35.75
59435;BME280;45241;49.768;8.636;2023-04-05T11:25:32;100686.97;;;15.26;37.30
59435;BME280;45241;49.768;8.636;2023-04-05T11:28:01;100687.66;;;14.89;36.19
59435;BME280;45241;49.768;8.636;2023-04-05T11:30:45;100676.00;;;15.02;35.46
59435;BME280;45241;49.768;8.636;2023-04-05T11:33:10;100674.97;;;15.09;34.83
59435;BME280;45241;49.768;8.636;2023-04-05T11:35:37;100667.84;;;13.55;34.87
59435;BME280;45241;49.768;8.636;2023-04-05T11:43:00;100654.22;;;14.90;33.89
59435;BME280;45241;49.768;8.636;2023-04-05T11:45:26;100660.66;;;14.95;33.15
59435;BME280;45241;49.768;8.636;2023-04-05T11:47:53;100648.00;;;14.70;33.51
59435;BME280;45241;49.768;8.636;2023-04-05T11:50:19;100644.06;;;14.72;33.41
59435;BME280;45241;49.768;8.636;2023-04-05T11:52:44;100648.09;;;13.89;31.55
59435;BME280;45241;49.768;8.636;2023-04-05T11:55:09;100647.75;;;15.11;34.64
59435;BME280;45241;49.768;8.636;2023-04-05T11:57:35;100636.75;;;15.19;32.58
59435;BME280;45241;49.768;8.636;2023-04-05T12:00:01;100645.28;;;14.76;32.60
59435;BME280;45241;49.768;8.636;2023-04-05T12:02:27;100642.78;;;15.01;32.58
59435;BME280;45241;49.768;8.636;2023-04-05T12:04:52;100642.75;;;15.21;33.05
59435;BME280;45241;49.768;8.636;2023-04-05T12:07:18;100630.63;;;15.57;32.83
59435;BME280;45241;49.768;8.636;2023-04-05T12:12:24;100639.59;;;15.37;31.46
59435;BME280;45241;49.768;8.636;2023-04-05T12:14:49;100624.94;;;14.87;30.67
59435;BME280;45241;49.768;8.636;2023-04-05T12:17:15;100633.91;;;14.54;31.28
59435;BME280;45241;49.768;8.636;2023-04-05T12:19:40;100636.53;;;14.21;31.49
59435;BME280;45241;49.768;8.636;2023-04-05T12:22:05;100630.34;;;14.34;31.89
59435;BME280;45241;49.768;8.636;2023-04-05T12:24:31;100630.50;;;14.06;31.64
59435;BME280;45241;49.768;8.636;2023-04-05T12:26:56;100618.66;;;15.19;32.19
59435;BME280;45241;49.768;8.636;2023-04-05T12:29:21;100626.56;;;15.21;32.14
59435;BME280;45241;49.768;8.636;2023-04-05T12:31:46;100620.41;;;14.67;30.89
59435;BME280;45241;49.768;8.636;2023-04-05T12:34:14;100616.56;;;15.21;31.84
59435;BME280;45241;49.768;8.636;2023-04-05T12:36:47;100611.81;;;15.75;31.72
59435;BME280;45241;49.768;8.636;2023-04-05T12:39:14;100605.59;;;15.74;31.23
59435;BME280;45241;49.768;8.636;2023-04-05T12:41:39;100608.78;;;15.96;31.04
59435;BME280;45241;49.768;8.636;2023-04-05T12:44:10;100602.41;;;16.15;31.26
59435;BME280;45241;49.768;8.636;2023-04-05T12:49:10;100597.22;;;15.82;30.30
59435;BME280;45241;49.768;8.636;2023-04-05T12:51:36;100589.13;;;17.44;29.73
59435;BME280;45241;49.768;8.636;2023-04-05T12:54:01;100589.00;;;16.27;29.66
59435;BME280;45241;49.768;8.636;2023-04-05T12:56:29;100589.13;;;16.14;28.54
59435;BME280;45241;49.768;8.636;2023-04-05T12:58:54;100587.34;;;15.63;28.22
59435;BME280;45241;49.768;8.636;2023-04-05T13:01:21;100586.75;;;15.93;30.07
59435;BME280;45241;49.768;8.636;2023-04-05T13:03:47;100576.66;;;16.63;29.35
59435;BME280;45241;49.768;8.636;2023-04-05T13:06:12;100576.88;;;17.05;28.24
59435;BME280;45241;49.768;8.636;2023-04-05T13:08:37;100576.78;;;16.68;28.91
59435;BME280;45241;49.768;8.636;2023-04-05T13:11:02;100574.50;;;16.47;29.67
59435;BME280;45241;49.768;8.636;2023-04-05T13:13:27;100575.75;;;17.30;29.15
59435;BME280;45241;49.768;8.636;2023-04-05T13:15:53;100572.56;;;16.54;28.17
59435;BME280;45241;49.768;8.636;2023-04-05T13:18:18;100562.88;;;16.64;28.54
59435;BME280;45241;49.768;8.636;2023-04-05T13:20:43;100555.72;;;16.77;28.82
59435;BME280;45241;49.768;8.636;2023-04-05T13:23:09;100561.88;;;16.84;28.92
59435;BME280;45241;49.768;8.636;2023-04-05T13:25:39;100554.44;;;17.16;28.21
59435;BME280;45241;49.768;8.636;2023-04-05T13:28:04;100552.38;;;17.48;28.34
59435;BME280;45241;49.768;8.636;2023-04-05T13:30:30;100559.13;;;16.90;27.01